sensor_id;sensor_type;location;lat;lon;timestamp;P1;durP1;ratioP1;P2;durP2;ratioP2
57389;SDS011;43217;52.694;6.214;2023-01-13T00:01:47;24.95;;;5.57;;
57389;SDS011;43217;52.694;6.214;2023-01-13T00:04:13;30.33;;;6.65;;
57389;SDS011;43217;52.694;6.214;2023-01-13T00:06:39;25.67;;;5.57;;
57389;SDS011;43217;52.694;6.214;2023-01-13T00:09:04;32.25;;;6.03;;
57389;SDS011;43217;52.694;6.214;2023-01-13T00:11:30;26.55;;;5.90;;
57389;SDS011;43217;52.694;6.214;2023-01-13T00:13:55;26.27;;;6.45;;
57389;SDS011;43217;52.694;6.214;2023-01-13T00:16:21;29.52;;;6.10;;
57389;SDS011;43217;52.694;6.214;2023-01-13T00:18:47;28.00;;;6.35;;
57389;SDS011;43217;52.694;6.214;2023-01-13T00:23:45;27.23;;;6.53;;
57389;SDS011;43217;52.694;6.214;2023-01-13T00:26:16;25.13;;;6.38;;
57389;SDS011;43217;52.694;6.214;2023-01-13T00:28:44;28.10;;;5.85;;
57389;SDS011;43217;52.694;6.214;2023-01-13T00:31:11;27.10;;;5.68;;
57389;SDS011;43217;52.694;6.214;2023-01-13T00:33:39;27.10;;;5.60;;
57389;SDS011;43217;52.694;6.214;2023-01-13T00:36:06;19.98;;;5.75;;
57389;SDS011;43217;52.694;6.214;2023-01-13T00:38:33;25.95;;;5.10;;
57389;SDS011;43217;52.694;6.214;2023-01-13T00:41:01;27.40;;;6.85;;
57389;SDS011;43217;52.694;6.214;2023-01-13T00:43:28;22.13;;;6.18;;
57389;SDS011;43217;52.694;6.214;2023-01-13T00:45:58;26.30;;;6.18;;
57389;SDS011;43217;52.694;6.214;2023-01-13T00:48:24;21.70;;;5.32;;
57389;SDS011;43217;52.694;6.214;2023-01-13T00:51:01;24.73;;;5.18;;
57389;SDS011;43217;52.694;6.214;2023-01-13T00:53:29;20.75;;;4.72;;
57389;SDS011;43217;52.694;6.214;2023-01-13T00:56:02;27.02;;;5.13;;
57389;SDS011;43217;52.694;6.214;2023-01-13T00:58:29;22.13;;;5.03;;
57389;SDS011;43217;52.694;6.214;2023-01-13T01:01:03;17.38;;;4.50;;
57389;SDS011;43217;52.694;6.214;2023-01-13T01:03:30;22.80;;;4.80;;
57389;SDS011;43217;52.694;6.214;2023-01-13T01:05:57;22.58;;;4.70;;
57389;SDS011;43217;52.694;6.214;2023-01-13T01:08:29;20.73;;;4.63;;
57389;SDS011;43217;52.694;6.214;2023-01-13T01:11:29;27.80;;;5.28;;
57389;SDS011;43217;52.694;6.214;2023-01-13T01:13:48;24.70;;;5.82;;
57389;SDS011;43217;52.694;6.214;2023-01-13T01:16:16;23.60;;;5.95;;
57389;SDS011;43217;52.694;6.214;2023-01-13T01:21:10;24.70;;;5.55;;
57389;SDS011;43217;52.694;6.214;2023-01-13T01:23:37;22.70;;;5.00;;
57389;SDS011;43217;52.694;6.214;2023-01-13T01:26:22;24.45;;;5.75;;
57389;SDS011;43217;52.694;6.214;2023-01-13T01:28:48;29.33;;;5.32;;
57389;SDS011;43217;52.694;6.214;2023-01-13T01:31:19;27.70;;;6.05;;
57389;SDS011;43217;52.694;6.214;2023-01-13T01:33:45;31.30;;;5.22;;
57389;SDS011;43217;52.694;6.214;2023-01-13T01:36:13;24.85;;;5.68;;
57389;SDS011;43217;52.694;6.214;2023-01-13T01:38:40;29.92;;;5.53;;
57389;SDS011;43217;52.694;6.214;2023-01-13T01:41:05;28.30;;;5.78;;
57389;SDS011;43217;52.694;6.214;2023-01-13T01:46:33;25.30;;;5.68;;
57389;SDS011;43217;52.694;6.214;2023-01-13T01:49:05;26.48;;;6.15;;
57389;SDS011;43217;52.694;6.214;2023-01-13T01:51:38;25.63;;;5.22;;
57389;SDS011;43217;52.694;6.214;2023-01-13T01:54:25;25.92;;;5.72;;
57389;SDS011;43217;52.694;6.214;2023-01-13T01:56:56;27.63;;;5.85;;
57389;SDS011;43217;52.694;6.214;2023-01-13T01:59:22;27.00;;;5.72;;
57389;SDS011;43217;52.694;6.214;2023-01-13T02:04:19;27.20;;;5.70;;
57389;SDS011;43217;52.694;6.214;2023-01-13T02:06:52;30.57;;;6.33;;
57389;SDS011;43217;52.694;6.214;2023-01-13T02:09:18;23.85;;;5.18;;
57389;SDS011;43217;52.694;6.214;2023-01-13T02:11:43;26.08;;;5.50;;
57389;SDS011;43217;52.694;6.214;2023-01-13T02:14:28;30.20;;;6.03;;
57389;SDS011;43217;52.694;6.214;2023-01-13T02:25:13;32.40;;;6.05;;
57389;SDS011;43217;52.694;6.214;2023-01-13T02:27:59;28.50;;;5.35;;
57389;SDS011;43217;52.694;6.214;2023-01-13T02:30:44;30.15;;;5.72;;
57389;SDS011;43217;52.694;6.214;2023-01-13T02:33:35;29.88;;;7.00;;
57389;SDS011;43217;52.694;6.214;2023-01-13T02:39:03;27.58;;;5.43;;
57389;SDS011;43217;52.694;6.214;2023-01-13T02:44:23;35.63;;;6.88;;
57389;SDS011;43217;52.694;6.214;2023-01-13T02:46:56;29.40;;;6.95;;
57389;SDS011;43217;52.694;6.214;2023-01-13T02:49:33;27.42;;;6.15;;
57389;SDS011;43217;52.694;6.214;2023-01-13T02:52:10;31.52;;;6.20;;
57389;SDS011;43217;52.694;6.214;2023-01-13T02:57:27;30.02;;;6.43;;
57389;SDS011;43217;52.694;6.214;2023-01-13T02:59:55;28.30;;;6.18;;
57389;SDS011;43217;52.694;6.214;2023-01-13T03:02:22;31.65;;;5.88;;
57389;SDS011;43217;52.694;6.214;2023-01-13T03:04:54;27.98;;;5.72;;
57389;SDS011;43217;52.694;6.214;2023-01-13T03:07:31;34.15;;;6.65;;
57389;SDS011;43217;52.694;6.214;2023-01-13T03:12:36;29.35;;;6.43;;
57389;SDS011;43217;52.694;6.214;2023-01-13T03:15:08;31.13;;;7.30;;
57389;SDS011;43217;52.694;6.214;2023-01-13T03:17:52;27.85;;;6.40;;
57389;SDS011;43217;52.694;6.214;2023-01-13T03:20:27;27.10;;;6.40;;
57389;SDS011;43217;52.694;6.214;2023-01-13T03:25:31;27.88;;;6.50;;
57389;SDS011;43217;52.694;6.214;2023-01-13T03:28:01;31.88;;;7.10;;
57389;SDS011;43217;52.694;6.214;2023-01-13T03:30:38;27.45;;;5.93;;
57389;SDS011;43217;52.694;6.214;2023-01-13T03:33:10;33.78;;;6.40;;
57389;SDS011;43217;52.694;6.214;2023-01-13T03:35:50;31.75;;;6.80;;
57389;SDS011;43217;52.694;6.214;2023-01-13T03:38:20;26.92;;;6.20;;
57389;SDS011;43217;52.694;6.214;2023-01-13T03:40:56;32.20;;;7.13;;
57389;SDS011;43217;52.694;6.214;2023-01-13T03:43:31;29.23;;;6.60;;
57389;SDS011;43217;52.694;6.214;2023-01-13T03:46:21;32.97;;;6.55;;
57389;SDS011;43217;52.694;6.214;2023-01-13T03:48:54;30.27;;;6.20;;
57389;SDS011;43217;52.694;6.214;2023-01-13T03:51:21;31.50;;;6.40;;
57389;SDS011;43217;52.694;6.214;2023-01-13T03:53:52;28.73;;;6.35;;
57389;SDS011;43217;52.694;6.214;2023-01-13T03:59:08;32.17;;;6.93;;
57389;SDS011;43217;52.694;6.214;2023-01-13T04:01:47;32.63;;;6.85;;
57389;SDS011;43217;52.694;6.214;2023-01-13T04:04:34;33.22;;;7.40;;
57389;SDS011;43217;52.694;6.214;2023-01-13T04:07:22;36.75;;;6.70;;
57389;SDS011;43217;52.694;6.214;2023-01-13T04:09:52;31.75;;;6.32;;
57389;SDS011;43217;52.694;6.214;2023-01-13T04:12:27;35.50;;;7.30;;
57389;SDS011;43217;52.694;6.214;2023-01-13T04:15:15;30.50;;;6.63;;
57389;SDS011;43217;52.694;6.214;2023-01-13T04:20:08;24.52;;;6.10;;
57389;SDS011;43217;52.694;6.214;2023-01-13T04:22:34;32.92;;;7.18;;
57389;SDS011;43217;52.694;6.214;2023-01-13T04:25:00;33.63;;;6.50;;
57389;SDS011;43217;52.694;6.214;2023-01-13T04:27:26;34.33;;;6.88;;
57389;SDS011;43217;52.694;6.214;2023-01-13T04:29:51;29.45;;;6.43;;
57389;SDS011;43217;52.694;6.214;2023-01-13T04:32:17;28.27;;;6.28;;
57389;SDS011;43217;52.694;6.214;2023-01-13T04:34:43;28.58;;;5.53;;
57389;SDS011;43217;52.694;6.214;2023-01-13T04:37:09;28.05;;;6.13;;
57389;SDS011;43217;52.694;6.214;2023-01-13T04:39:34;29.75;;;5.80;;
57389;SDS011;43217;52.694;6.214;2023-01-13T04:42:00;32.13;;;6.80;;
57389;SDS011;43217;52.694;6.214;2023-01-13T04:44:26;29.77;;;6.72;;
57389;SDS011;43217;52.694;6.214;2023-01-13T04:49:20;35.33;;;6.30;;
57389;SDS011;43217;52.694;6.214;2023-01-13T04:51:45;28.48;;;6.03;;
57389;SDS011;43217;52.694;6.214;2023-01-13T04:54:14;29.85;;;6.07;;
57389;SDS011;43217;52.694;6.214;2023-01-13T04:56:40;31.30;;;5.97;;
57389;SDS011;43217;52.694;6.214;2023-01-13T04:59:06;28.02;;;6.85;;
57389;SDS011;43217;52.694;6.214;2023-01-13T05:01:32;31.85;;;7.03;;
57389;SDS011;43217;52.694;6.214;2023-01-13T05:03:58;23.75;;;6.03;;
57389;SDS011;43217;52.694;6.214;2023-01-13T05:06:24;31.15;;;5.95;;
57389;SDS011;43217;52.694;6.214;2023-01-13T05:08:50;26.58;;;5.75;;
57389;SDS011;43217;52.694;6.214;2023-01-13T05:11:16;27.63;;;6.03;;
57389;SDS011;43217;52.694;6.214;2023-01-13T05:14:00;22.67;;;4.70;;
57389;SDS011;43217;52.694;6.214;2023-01-13T05:16:45;23.27;;;4.75;;
57389;SDS011;43217;52.694;6.214;2023-01-13T05:19:29;25.73;;;5.90;;
57389;SDS011;43217;52.694;6.214;2023-01-13T05:22:00;23.75;;;5.50;;
57389;SDS011;43217;52.694;6.214;2023-01-13T05:24:44;26.48;;;5.80;;
57389;SDS011;43217;52.694;6.214;2023-01-13T05:27:28;23.85;;;5.90;;
57389;SDS011;43217;52.694;6.214;2023-01-13T05:29:55;24.80;;;4.63;;
57389;SDS011;43217;52.694;6.214;2023-01-13T05:32:21;18.77;;;4.40;;
57389;SDS011;43217;52.694;6.214;2023-01-13T05:34:48;20.50;;;4.75;;
57389;SDS011;43217;52.694;6.214;2023-01-13T05:37:14;19.10;;;4.13;;
57389;SDS011;43217;52.694;6.214;2023-01-13T05:39:39;19.58;;;4.13;;
57389;SDS011;43217;52.694;6.214;2023-01-13T05:42:24;15.45;;;3.72;;
57389;SDS011;43217;52.694;6.214;2023-01-13T05:45:09;19.98;;;3.88;;
57389;SDS011;43217;52.694;6.214;2023-01-13T05:47:35;17.60;;;4.20;;
57389;SDS011;43217;52.694;6.214;2023-01-13T05:50:01;20.60;;;4.63;;
57389;SDS011;43217;52.694;6.214;2023-01-13T05:52:28;19.63;;;4.55;;
57389;SDS011;43217;52.694;6.214;2023-01-13T05:54:53;18.77;;;5.40;;
57389;SDS011;43217;52.694;6.214;2023-01-13T05:57:19;16.23;;;4.65;;
57389;SDS011;43217;52.694;6.214;2023-01-13T05:59:44;26.05;;;6.10;;
57389;SDS011;43217;52.694;6.214;2023-01-13T06:02:10;18.42;;;5.63;;
57389;SDS011;43217;52.694;6.214;2023-01-13T06:04:36;18.75;;;5.22;;
57389;SDS011;43217;52.694;6.214;2023-01-13T06:07:01;16.70;;;6.13;;
57389;SDS011;43217;52.694;6.214;2023-01-13T06:09:27;20.00;;;6.55;;
57389;SDS011;43217;52.694;6.214;2023-01-13T06:11:52;20.33;;;5.50;;
57389;SDS011;43217;52.694;6.214;2023-01-13T06:14:18;21.73;;;5.22;;
57389;SDS011;43217;52.694;6.214;2023-01-13T06:16:43;18.02;;;4.50;;
57389;SDS011;43217;52.694;6.214;2023-01-13T06:19:10;15.45;;;4.13;;
57389;SDS011;43217;52.694;6.214;2023-01-13T06:21:40;23.42;;;4.88;;
57389;SDS011;43217;52.694;6.214;2023-01-13T06:24:06;14.27;;;3.20;;
57389;SDS011;43217;52.694;6.214;2023-01-13T06:26:37;17.35;;;3.55;;
57389;SDS011;43217;52.694;6.214;2023-01-13T06:29:04;14.63;;;3.78;;
57389;SDS011;43217;52.694;6.214;2023-01-13T06:31:32;13.90;;;3.67;;
57389;SDS011;43217;52.694;6.214;2023-01-13T06:34:04;17.00;;;3.40;;
57389;SDS011;43217;52.694;6.214;2023-01-13T06:36:37;13.10;;;3.10;;
57389;SDS011;43217;52.694;6.214;2023-01-13T06:39:05;18.17;;;3.40;;
57389;SDS011;43217;52.694;6.214;2023-01-13T06:41:35;13.63;;;2.90;;
57389;SDS011;43217;52.694;6.214;2023-01-13T06:44:19;13.88;;;3.40;;
57389;SDS011;43217;52.694;6.214;2023-01-13T06:46:47;12.82;;;2.92;;
57389;SDS011;43217;52.694;6.214;2023-01-13T06:49:13;10.30;;;2.80;;
57389;SDS011;43217;52.694;6.214;2023-01-13T06:51:39;12.38;;;2.90;;
57389;SDS011;43217;52.694;6.214;2023-01-13T06:54:04;17.23;;;3.30;;
57389;SDS011;43217;52.694;6.214;2023-01-13T06:56:30;17.60;;;3.50;;
57389;SDS011;43217;52.694;6.214;2023-01-13T06:58:55;14.70;;;2.95;;
57389;SDS011;43217;52.694;6.214;2023-01-13T07:01:21;11.13;;;2.47;;
57389;SDS011;43217;52.694;6.214;2023-01-13T07:03:47;14.55;;;3.08;;
57389;SDS011;43217;52.694;6.214;2023-01-13T07:06:12;17.55;;;3.38;;
57389;SDS011;43217;52.694;6.214;2023-01-13T07:08:38;20.55;;;8.18;;
57389;SDS011;43217;52.694;6.214;2023-01-13T07:11:04;15.27;;;4.38;;
57389;SDS011;43217;52.694;6.214;2023-01-13T07:13:29;16.35;;;4.63;;
57389;SDS011;43217;52.694;6.214;2023-01-13T07:16:14;14.80;;;4.35;;
57389;SDS011;43217;52.694;6.214;2023-01-13T07:18:39;17.98;;;4.00;;
57389;SDS011;43217;52.694;6.214;2023-01-13T07:21:06;16.38;;;3.85;;
57389;SDS011;43217;52.694;6.214;2023-01-13T07:23:35;18.23;;;4.57;;
57389;SDS011;43217;52.694;6.214;2023-01-13T07:26:03;16.73;;;4.53;;
57389;SDS011;43217;52.694;6.214;2023-01-13T07:28:29;19.05;;;5.53;;
57389;SDS011;43217;52.694;6.214;2023-01-13T07:30:56;16.67;;;5.93;;
57389;SDS011;43217;52.694;6.214;2023-01-13T07:33:22;18.90;;;4.50;;
57389;SDS011;43217;52.694;6.214;2023-01-13T07:35:54;20.23;;;7.75;;
57389;SDS011;43217;52.694;6.214;2023-01-13T07:38:24;21.98;;;6.35;;
57389;SDS011;43217;52.694;6.214;2023-01-13T07:40:51;18.73;;;4.53;;
57389;SDS011;43217;52.694;6.214;2023-01-13T07:43:16;18.23;;;4.55;;
57389;SDS011;43217;52.694;6.214;2023-01-13T07:46:01;15.90;;;3.75;;
57389;SDS011;43217;52.694;6.214;2023-01-13T07:48:28;20.50;;;4.60;;
57389;SDS011;43217;52.694;6.214;2023-01-13T07:50:55;22.20;;;5.07;;
57389;SDS011;43217;52.694;6.214;2023-01-13T07:53:24;18.70;;;4.93;;
57389;SDS011;43217;52.694;6.214;2023-01-13T07:55:53;27.90;;;4.25;;
57389;SDS011;43217;52.694;6.214;2023-01-13T07:58:20;21.83;;;4.45;;
57389;SDS011;43217;52.694;6.214;2023-01-13T08:00:46;19.83;;;4.55;;
57389;SDS011;43217;52.694;6.214;2023-01-13T08:03:11;16.65;;;4.53;;
57389;SDS011;43217;52.694;6.214;2023-01-13T08:05:37;26.50;;;4.95;;
57389;SDS011;43217;52.694;6.214;2023-01-13T08:08:03;21.42;;;4.40;;
57389;SDS011;43217;52.694;6.214;2023-01-13T08:10:28;17.35;;;4.38;;
57389;SDS011;43217;52.694;6.214;2023-01-13T08:12:54;20.10;;;4.45;;
57389;SDS011;43217;52.694;6.214;2023-01-13T08:15:38;24.00;;;5.85;;
57389;SDS011;43217;52.694;6.214;2023-01-13T08:18:04;26.50;;;5.45;;
57389;SDS011;43217;52.694;6.214;2023-01-13T08:20:29;23.50;;;5.32;;
57389;SDS011;43217;52.694;6.214;2023-01-13T08:22:58;23.83;;;5.20;;
57389;SDS011;43217;52.694;6.214;2023-01-13T08:25:26;23.70;;;5.15;;
57389;SDS011;43217;52.694;6.214;2023-01-13T08:27:52;20.40;;;5.55;;
57389;SDS011;43217;52.694;6.214;2023-01-13T08:30:18;20.52;;;4.65;;
57389;SDS011;43217;52.694;6.214;2023-01-13T08:32:45;19.83;;;5.53;;
57389;SDS011;43217;52.694;6.214;2023-01-13T08:35:12;26.77;;;5.45;;
57389;SDS011;43217;52.694;6.214;2023-01-13T08:37:38;22.90;;;4.78;;
57389;SDS011;43217;52.694;6.214;2023-01-13T08:40:04;21.13;;;5.75;;
57389;SDS011;43217;52.694;6.214;2023-01-13T08:42:32;19.17;;;4.97;;
57389;SDS011;43217;52.694;6.214;2023-01-13T08:44:58;22.53;;;5.33;;
57389;SDS011;43217;52.694;6.214;2023-01-13T08:47:25;18.85;;;5.07;;
57389;SDS011;43217;52.694;6.214;2023-01-13T08:52:17;19.45;;;5.68;;
57389;SDS011;43217;52.694;6.214;2023-01-13T08:54:42;20.67;;;4.85;;
57389;SDS011;43217;52.694;6.214;2023-01-13T08:57:08;18.13;;;4.50;;
57389;SDS011;43217;52.694;6.214;2023-01-13T08:59:34;28.40;;;5.82;;
57389;SDS011;43217;52.694;6.214;2023-01-13T09:01:59;19.25;;;4.65;;
57389;SDS011;43217;52.694;6.214;2023-01-13T09:04:26;22.13;;;4.85;;
57389;SDS011;43217;52.694;6.214;2023-01-13T09:06:53;18.33;;;4.70;;
57389;SDS011;43217;52.694;6.214;2023-01-13T09:09:19;19.85;;;4.93;;
57389;SDS011;43217;52.694;6.214;2023-01-13T09:11:46;23.73;;;6.22;;
57389;SDS011;43217;52.694;6.214;2023-01-13T09:16:59;20.15;;;4.47;;
57389;SDS011;43217;52.694;6.214;2023-01-13T09:19:25;21.05;;;4.38;;
57389;SDS011;43217;52.694;6.214;2023-01-13T09:21:51;19.20;;;4.05;;
57389;SDS011;43217;52.694;6.214;2023-01-13T09:24:18;22.05;;;4.90;;
57389;SDS011;43217;52.694;6.214;2023-01-13T09:26:44;21.52;;;4.60;;
57389;SDS011;43217;52.694;6.214;2023-01-13T09:29:10;22.83;;;5.10;;
57389;SDS011;43217;52.694;6.214;2023-01-13T09:31:35;18.98;;;4.00;;
57389;SDS011;43217;52.694;6.214;2023-01-13T09:34:02;20.85;;;4.40;;
57389;SDS011;43217;52.694;6.214;2023-01-13T09:36:47;20.70;;;5.25;;
57389;SDS011;43217;52.694;6.214;2023-01-13T09:39:13;19.60;;;4.80;;
57389;SDS011;43217;52.694;6.214;2023-01-13T09:41:43;19.95;;;4.90;;
57389;SDS011;43217;52.694;6.214;2023-01-13T09:47:26;21.58;;;5.32;;
57389;SDS011;43217;52.694;6.214;2023-01-13T09:49:58;23.33;;;5.20;;
57389;SDS011;43217;52.694;6.214;2023-01-13T09:52:30;25.73;;;5.10;;
57389;SDS011;43217;52.694;6.214;2023-01-13T09:55:02;20.98;;;4.82;;
57389;SDS011;43217;52.694;6.214;2023-01-13T09:57:35;27.23;;;5.20;;
57389;SDS011;43217;52.694;6.214;2023-01-13T10:00:03;25.45;;;5.05;;
57389;SDS011;43217;52.694;6.214;2023-01-13T10:08:12;26.80;;;5.53;;
57389;SDS011;43217;52.694;6.214;2023-01-13T10:15:53;28.13;;;5.00;;
57389;SDS011;43217;52.694;6.214;2023-01-13T10:18:21;24.98;;;6.28;;
57389;SDS011;43217;52.694;6.214;2023-01-13T10:20:54;21.65;;;5.25;;
57389;SDS011;43217;52.694;6.214;2023-01-13T10:29:01;22.83;;;5.93;;
57389;SDS011;43217;52.694;6.214;2023-01-13T10:31:26;26.85;;;5.97;;
57389;SDS011;43217;52.694;6.214;2023-01-13T10:33:56;26.90;;;5.47;;
57389;SDS011;43217;52.694;6.214;2023-01-13T10:36:28;22.67;;;4.97;;
57389;SDS011;43217;52.694;6.214;2023-01-13T10:38:55;27.83;;;5.88;;
57389;SDS011;43217;52.694;6.214;2023-01-13T10:41:38;28.98;;;6.10;;
57389;SDS011;43217;52.694;6.214;2023-01-13T10:44:05;24.98;;;5.78;;
57389;SDS011;43217;52.694;6.214;2023-01-13T10:46:51;25.70;;;5.50;;
57389;SDS011;43217;52.694;6.214;2023-01-13T10:49:24;29.60;;;5.90;;
57389;SDS011;43217;52.694;6.214;2023-01-13T10:52:01;25.10;;;4.70;;
57389;SDS011;43217;52.694;6.214;2023-01-13T10:54:28;28.77;;;6.93;;
57389;SDS011;43217;52.694;6.214;2023-01-13T11:00:02;25.63;;;6.07;;
57389;SDS011;43217;52.694;6.214;2023-01-13T11:02:32;25.92;;;5.50;;
57389;SDS011;43217;52.694;6.214;2023-01-13T11:07:57;27.05;;;5.95;;
57389;SDS011;43217;52.694;6.214;2023-01-13T11:10:25;26.85;;;5.53;;
57389;SDS011;43217;52.694;6.214;2023-01-13T11:13:07;20.35;;;4.57;;
57389;SDS011;43217;52.694;6.214;2023-01-13T11:15:45;20.73;;;4.47;;
57389;SDS011;43217;52.694;6.214;2023-01-13T11:21:05;21.23;;;4.60;;
57389;SDS011;43217;52.694;6.214;2023-01-13T11:23:46;16.38;;;4.85;;
57389;SDS011;43217;52.694;6.214;2023-01-13T11:26:26;22.55;;;4.60;;
57389;SDS011;43217;52.694;6.214;2023-01-13T11:29:37;16.58;;;5.82;;
57389;SDS011;43217;52.694;6.214;2023-01-13T11:32:17;20.40;;;4.72;;
57389;SDS011;43217;52.694;6.214;2023-01-13T11:34:47;18.15;;;4.38;;
57389;SDS011;43217;52.694;6.214;2023-01-13T11:37:24;19.77;;;4.50;;
57389;SDS011;43217;52.694;6.214;2023-01-13T11:42:40;17.88;;;4.47;;
57389;SDS011;43217;52.694;6.214;2023-01-13T11:48:07;17.08;;;4.03;;
57389;SDS011;43217;52.694;6.214;2023-01-13T11:50:50;18.13;;;4.20;;
57389;SDS011;43217;52.694;6.214;2023-01-13T12:05:13;17.83;;;3.85;;
57389;SDS011;43217;52.694;6.214;2023-01-13T12:13:09;14.32;;;3.78;;
57389;SDS011;43217;52.694;6.214;2023-01-13T12:15:52;16.52;;;4.20;;
57389;SDS011;43217;52.694;6.214;2023-01-13T12:18:34;12.30;;;3.88;;
57389;SDS011;43217;52.694;6.214;2023-01-13T12:26:37;14.15;;;3.13;;
57389;SDS011;43217;52.694;6.214;2023-01-13T12:29:08;11.57;;;3.45;;
57389;SDS011;43217;52.694;6.214;2023-01-13T12:31:42;12.70;;;3.00;;
57389;SDS011;43217;52.694;6.214;2023-01-13T12:34:21;16.30;;;4.30;;
57389;SDS011;43217;52.694;6.214;2023-01-13T12:37:03;12.07;;;3.42;;
57389;SDS011;43217;52.694;6.214;2023-01-13T12:42:10;13.25;;;2.58;;
57389;SDS011;43217;52.694;6.214;2023-01-13T12:47:40;12.50;;;3.60;;
57389;SDS011;43217;52.694;6.214;2023-01-13T12:55:27;10.68;;;2.55;;
57389;SDS011;43217;52.694;6.214;2023-01-13T12:57:57;14.65;;;3.28;;
57389;SDS011;43217;52.694;6.214;2023-01-13T13:01:10;11.23;;;2.92;;
57389;SDS011;43217;52.694;6.214;2023-01-13T13:11:35;13.15;;;2.55;;
57389;SDS011;43217;52.694;6.214;2023-01-13T13:22:19;12.40;;;3.08;;
57389;SDS011;43217;52.694;6.214;2023-01-13T13:30:34;8.15;;;2.55;;
57389;SDS011;43217;52.694;6.214;2023-01-13T13:41:33;10.13;;;2.92;;
57389;SDS011;43217;52.694;6.214;2023-01-13T13:44:29;9.50;;;3.43;;
57389;SDS011;43217;52.694;6.214;2023-01-13T13:47:15;12.20;;;3.72;;
57389;SDS011;43217;52.694;6.214;2023-01-13T13:49:42;10.52;;;3.30;;
57389;SDS011;43217;52.694;6.214;2023-01-13T13:52:24;11.18;;;3.33;;
57389;SDS011;43217;52.694;6.214;2023-01-13T13:55:01;14.52;;;3.00;;
57389;SDS011;43217;52.694;6.214;2023-01-13T13:57:34;11.27;;;3.17;;
57389;SDS011;43217;52.694;6.214;2023-01-13T14:00:44;11.70;;;2.72;;
57389;SDS011;43217;52.694;6.214;2023-01-13T14:05:31;10.40;;;3.03;;
57389;SDS011;43217;52.694;6.214;2023-01-13T14:10:34;15.57;;;3.30;;
57389;SDS011;43217;52.694;6.214;2023-01-13T14:13:11;9.48;;;2.80;;
57389;SDS011;43217;52.694;6.214;2023-01-13T14:16:01;12.13;;;2.78;;
57389;SDS011;43217;52.694;6.214;2023-01-13T14:18:31;12.25;;;2.90;;
57389;SDS011;43217;52.694;6.214;2023-01-13T14:21:27;8.48;;;2.22;;
57389;SDS011;43217;52.694;6.214;2023-01-13T14:23:53;13.70;;;2.95;;
57389;SDS011;43217;52.694;6.214;2023-01-13T14:26:30;11.32;;;3.22;;
57389;SDS011;43217;52.694;6.214;2023-01-13T14:28:57;9.68;;;2.42;;
57389;SDS011;43217;52.694;6.214;2023-01-13T14:31:24;12.00;;;2.50;;
57389;SDS011;43217;52.694;6.214;2023-01-13T14:33:51;7.57;;;2.55;;
57389;SDS011;43217;52.694;6.214;2023-01-13T14:41:49;10.95;;;2.47;;
57389;SDS011;43217;52.694;6.214;2023-01-13T14:44:23;13.13;;;2.72;;
57389;SDS011;43217;52.694;6.214;2023-01-13T14:46:59;11.13;;;2.35;;
57389;SDS011;43217;52.694;6.214;2023-01-13T14:49:48;8.57;;;2.20;;
57389;SDS011;43217;52.694;6.214;2023-01-13T14:52:19;10.95;;;3.10;;
57389;SDS011;43217;52.694;6.214;2023-01-13T14:54:47;7.03;;;2.35;;
57389;SDS011;43217;52.694;6.214;2023-01-13T14:57:39;10.90;;;3.42;;
57389;SDS011;43217;52.694;6.214;2023-01-13T15:10:24;8.73;;;2.83;;
57389;SDS011;43217;52.694;6.214;2023-01-13T15:12:53;10.25;;;2.63;;
57389;SDS011;43217;52.694;6.214;2023-01-13T15:15:22;8.57;;;2.38;;
57389;SDS011;43217;52.694;6.214;2023-01-13T15:17:57;9.52;;;2.63;;
57389;SDS011;43217;52.694;6.214;2023-01-13T15:20:27;7.45;;;2.30;;
57389;SDS011;43217;52.694;6.214;2023-01-13T15:22:53;9.60;;;2.65;;
57389;SDS011;43217;52.694;6.214;2023-01-13T15:25:21;14.65;;;3.15;;
57389;SDS011;43217;52.694;6.214;2023-01-13T15:27:47;12.05;;;3.33;;
57389;SDS011;43217;52.694;6.214;2023-01-13T15:30:16;12.77;;;2.80;;
57389;SDS011;43217;52.694;6.214;2023-01-13T15:32:44;8.10;;;2.72;;
57389;SDS011;43217;52.694;6.214;2023-01-13T15:35:14;7.53;;;2.30;;
57389;SDS011;43217;52.694;6.214;2023-01-13T15:37:41;12.25;;;2.60;;
57389;SDS011;43217;52.694;6.214;2023-01-13T15:40:50;11.30;;;3.20;;
57389;SDS011;43217;52.694;6.214;2023-01-13T15:42:57;9.68;;;3.50;;
57389;SDS011;43217;52.694;6.214;2023-01-13T15:45:41;9.48;;;2.67;;
57389;SDS011;43217;52.694;6.214;2023-01-13T15:48:26;9.38;;;2.60;;
57389;SDS011;43217;52.694;6.214;2023-01-13T15:50:56;11.80;;;2.97;;
57389;SDS011;43217;52.694;6.214;2023-01-13T15:53:21;10.82;;;3.30;;
57389;SDS011;43217;52.694;6.214;2023-01-13T15:55:51;11.65;;;3.30;;
57389;SDS011;43217;52.694;6.214;2023-01-13T15:58:20;10.18;;;3.85;;
57389;SDS011;43217;52.694;6.214;2023-01-13T16:00:49;11.73;;;4.10;;
57389;SDS011;43217;52.694;6.214;2023-01-13T16:03:15;14.90;;;4.07;;
57389;SDS011;43217;52.694;6.214;2023-01-13T16:05:41;12.18;;;4.80;;
57389;SDS011;43217;52.694;6.214;2023-01-13T16:08:14;15.80;;;6.00;;
57389;SDS011;43217;52.694;6.214;2023-01-13T16:10:43;15.23;;;6.28;;
57389;SDS011;43217;52.694;6.214;2023-01-13T16:13:10;10.90;;;3.83;;
57389;SDS011;43217;52.694;6.214;2023-01-13T16:15:47;18.98;;;9.20;;
57389;SDS011;43217;52.694;6.214;2023-01-13T16:18:18;22.80;;;7.63;;
57389;SDS011;43217;52.694;6.214;2023-01-13T16:20:45;14.43;;;5.22;;
57389;SDS011;43217;52.694;6.214;2023-01-13T16:23:12;15.55;;;5.10;;
57389;SDS011;43217;52.694;6.214;2023-01-13T16:25:38;13.38;;;5.57;;
57389;SDS011;43217;52.694;6.214;2023-01-13T16:28:05;14.48;;;3.83;;
57389;SDS011;43217;52.694;6.214;2023-01-13T16:30:34;14.18;;;5.57;;
57389;SDS011;43217;52.694;6.214;2023-01-13T16:33:01;18.50;;;6.85;;
57389;SDS011;43217;52.694;6.214;2023-01-13T16:35:27;13.40;;;3.88;;
57389;SDS011;43217;52.694;6.214;2023-01-13T16:37:56;15.15;;;4.82;;
57389;SDS011;43217;52.694;6.214;2023-01-13T16:42:57;14.95;;;4.28;;
57389;SDS011;43217;52.694;6.214;2023-01-13T16:45:25;14.43;;;3.85;;
57389;SDS011;43217;52.694;6.214;2023-01-13T16:47:50;12.48;;;3.47;;
57389;SDS011;43217;52.694;6.214;2023-01-13T16:52:55;14.25;;;6.55;;
57389;SDS011;43217;52.694;6.214;2023-01-13T16:55:21;11.65;;;3.75;;
57389;SDS011;43217;52.694;6.214;2023-01-13T16:57:46;8.48;;;2.67;;
57389;SDS011;43217;52.694;6.214;2023-01-13T17:00:12;13.57;;;3.22;;
57389;SDS011;43217;52.694;6.214;2023-01-13T17:02:38;11.02;;;3.08;;
57389;SDS011;43217;52.694;6.214;2023-01-13T17:05:04;11.30;;;2.45;;
57389;SDS011;43217;52.694;6.214;2023-01-13T17:07:31;10.15;;;2.72;;
57389;SDS011;43217;52.694;6.214;2023-01-13T17:09:57;14.65;;;3.55;;
57389;SDS011;43217;52.694;6.214;2023-01-13T17:12:22;12.07;;;3.08;;
57389;SDS011;43217;52.694;6.214;2023-01-13T17:14:48;10.23;;;2.92;;
57389;SDS011;43217;52.694;6.214;2023-01-13T17:17:24;16.85;;;3.38;;
57389;SDS011;43217;52.694;6.214;2023-01-13T17:19:51;11.90;;;3.17;;
57389;SDS011;43217;52.694;6.214;2023-01-13T17:22:18;10.38;;;2.90;;
57389;SDS011;43217;52.694;6.214;2023-01-13T17:24:44;15.40;;;3.70;;
57389;SDS011;43217;52.694;6.214;2023-01-13T17:27:10;11.65;;;3.20;;
57389;SDS011;43217;52.694;6.214;2023-01-13T17:29:36;9.52;;;3.90;;
57389;SDS011;43217;52.694;6.214;2023-01-13T17:32:02;9.38;;;3.20;;
57389;SDS011;43217;52.694;6.214;2023-01-13T17:34:28;10.20;;;3.05;;
57389;SDS011;43217;52.694;6.214;2023-01-13T17:36:54;8.40;;;3.92;;
57389;SDS011;43217;52.694;6.214;2023-01-13T17:39:22;8.35;;;2.78;;
57389;SDS011;43217;52.694;6.214;2023-01-13T17:41:49;9.18;;;2.67;;
57389;SDS011;43217;52.694;6.214;2023-01-13T17:44:16;11.27;;;3.63;;
57389;SDS011;43217;52.694;6.214;2023-01-13T17:46:43;9.05;;;3.13;;